createdAt,value
2019-05-26T00:01:38.653Z,24.63
2019-05-26T00:04:10.643Z,25.30
2019-05-26T00:06:42.606Z,28.27
2019-05-26T00:09:14.609Z,24.20
2019-05-26T00:11:46.579Z,25.10
2019-05-26T00:14:18.635Z,25.93
2019-05-26T00:16:50.596Z,25.17
2019-05-26T00:19:22.587Z,24.10
2019-05-26T00:21:54.557Z,24.53
2019-05-26T00:24:26.576Z,25.40
2019-05-26T00:26:58.573Z,20.40
2019-05-26T00:29:30.552Z,17.87
2019-05-26T00:32:02.505Z,21.50
2019-05-26T00:34:34.493Z,18.43
2019-05-26T00:37:06.483Z,19.77
2019-05-26T00:39:38.545Z,19.07
2019-05-26T00:42:10.529Z,19.37
2019-05-26T00:44:42.543Z,18.57
2019-05-26T00:47:14.542Z,19.77
2019-05-26T00:49:46.598Z,20.67
2019-05-26T00:52:18.566Z,19.53
2019-05-26T00:54:50.561Z,18.93
2019-05-26T00:57:22.516Z,21.67
2019-05-26T00:59:54.496Z,26.07
2019-05-26T01:02:26.460Z,22.47
2019-05-26T01:04:58.427Z,23.03
2019-05-26T01:07:30.408Z,25.10
2019-05-26T01:10:02.459Z,22.73
2019-05-26T01:12:34.417Z,23.77
2019-05-26T01:15:07.021Z,25.23
2019-05-26T01:17:39.037Z,25.03
2019-05-26T01:20:11.029Z,23.03
2019-05-26T01:22:43.013Z,28.10
2019-05-26T01:25:15.048Z,26.80
2019-05-26T01:27:47.203Z,26.17
2019-05-26T01:30:23.627Z,28.13
2019-05-26T01:32:55.670Z,26.13
2019-05-26T01:35:27.641Z,25.87
2019-05-26T01:37:59.922Z,28.20
2019-05-26T01:40:36.753Z,27.80
2019-05-26T01:43:08.810Z,26.37
2019-05-26T01:45:40.849Z,25.47
2019-05-26T01:48:12.846Z,26.90
2019-05-26T01:50:44.949Z,26.60
2019-05-26T01:53:16.942Z,23.90
2019-05-26T01:55:48.962Z,27.93
2019-05-26T01:58:20.927Z,24.93
2019-05-26T02:00:52.901Z,20.63
2019-05-26T02:03:24.862Z,21.60
2019-05-26T02:05:56.818Z,19.40
2019-05-26T02:08:38.762Z,18.80
2019-05-26T02:11:02.970Z,18.13
2019-05-26T02:13:34.989Z,17.37
2019-05-26T02:16:06.959Z,19.53
2019-05-26T02:18:38.925Z,18.77
2019-05-26T02:21:14.691Z,19.17
2019-05-26T02:23:44.786Z,19.50
2019-05-26T02:26:16.733Z,18.60
2019-05-26T02:28:48.816Z,19.27
2019-05-26T02:31:20.716Z,19.83
2019-05-26T02:33:52.714Z,20.17
2019-05-26T02:36:24.701Z,18.93
2019-05-26T02:39:02.469Z,18.87
2019-05-26T02:41:33.287Z,19.10
2019-05-26T02:44:05.304Z,19.17
2019-05-26T02:46:37.374Z,18.60
2019-05-26T02:49:09.345Z,18.03
2019-05-26T02:51:41.330Z,17.97
2019-05-26T02:54:13.320Z,18.00
2019-05-26T02:56:45.313Z,17.47
2019-05-26T02:59:17.328Z,16.77
2019-05-26T03:02:02.090Z,18.40
2019-05-26T03:04:23.246Z,21.07
2019-05-26T03:06:56.323Z,19.70
2019-05-26T03:09:28.760Z,21.50
2019-05-26T03:12:02.353Z,22.30
2019-05-26T03:14:34.369Z,21.83
2019-05-26T03:17:06.345Z,23.07
2019-05-26T03:19:40.168Z,22.27
2019-05-26T03:22:13.963Z,21.40
2019-05-26T03:24:47.661Z,21.47
2019-05-26T03:27:19.756Z,22.20
2019-05-26T03:29:51.893Z,21.47
2019-05-26T03:32:23.851Z,19.53
2019-05-26T03:34:55.870Z,20.80
2019-05-26T03:37:27.843Z,19.63
2019-05-26T03:39:59.888Z,18.90
2019-05-26T03:42:31.849Z,19.73
2019-05-26T03:45:04.996Z,17.37
2019-05-26T03:47:36.970Z,19.47
2019-05-26T03:50:08.971Z,19.50
2019-05-26T03:52:40.969Z,20.07
2019-05-26T03:55:12.935Z,18.93
2019-05-26T03:57:44.920Z,19.37
2019-05-26T04:00:16.963Z,19.83
2019-05-26T04:02:48.926Z,19.30
2019-05-26T04:05:20.908Z,19.37
2019-05-26T04:07:52.876Z,17.83
2019-05-26T04:10:24.872Z,20.23
2019-05-26T04:12:56.896Z,18.80
2019-05-26T04:15:28.908Z,19.83
2019-05-26T04:18:00.909Z,19.53
2019-05-26T04:20:32.891Z,19.73
2019-05-26T04:23:04.930Z,19.17
2019-05-26T04:25:36.909Z,19.37
2019-05-26T04:28:08.874Z,20.37
2019-05-26T04:30:40.867Z,19.77
2019-05-26T04:33:12.849Z,20.77
2019-05-26T04:35:44.851Z,22.00
2019-05-26T04:38:16.880Z,20.00
2019-05-26T04:40:48.830Z,20.37
2019-05-26T04:43:20.812Z,18.90
2019-05-26T04:45:52.781Z,22.27
2019-05-26T04:48:24.781Z,21.00
2019-05-26T04:50:56.754Z,22.23
2019-05-26T04:53:28.754Z,22.50
2019-05-26T04:56:00.744Z,21.20
2019-05-26T04:58:32.743Z,21.50
2019-05-26T05:01:04.701Z,21.47
2019-05-26T05:03:36.666Z,20.37
2019-05-26T05:06:08.655Z,22.07
2019-05-26T05:08:40.688Z,19.90
2019-05-26T05:11:12.702Z,21.60
2019-05-26T05:13:44.690Z,20.00
2019-05-26T05:16:16.660Z,21.43
2019-05-26T05:18:48.682Z,20.10
2019-05-26T05:21:20.661Z,21.10
2019-05-26T05:23:52.617Z,22.17
2019-05-26T05:26:24.583Z,21.87
2019-05-26T05:28:56.577Z,22.00
2019-05-26T05:31:28.540Z,21.37
2019-05-26T05:34:00.536Z,22.37
2019-05-26T05:36:32.570Z,19.73
2019-05-26T05:39:06.584Z,21.60
2019-05-26T05:41:38.540Z,19.33
2019-05-26T05:44:10.547Z,21.53
2019-05-26T05:46:42.658Z,19.90
2019-05-26T05:49:14.654Z,20.03
2019-05-26T05:51:46.643Z,21.13
2019-05-26T05:54:18.622Z,20.00
2019-05-26T05:56:50.603Z,19.53
2019-05-26T05:59:22.582Z,19.80
2019-05-26T06:01:54.583Z,19.73
2019-05-26T06:04:26.633Z,18.40
2019-05-26T06:06:58.588Z,19.00
2019-05-26T06:09:30.580Z,19.90
2019-05-26T06:12:02.574Z,18.70
2019-05-26T06:14:34.613Z,18.47
2019-05-26T06:17:10.335Z,18.20
2019-05-26T06:19:40.544Z,17.30
2019-05-26T06:22:12.578Z,15.87
2019-05-26T06:24:44.565Z,16.23
2019-05-26T06:27:16.542Z,15.18
2019-05-26T06:29:58.592Z,16.25
2019-05-26T06:32:22.433Z,15.60
2019-05-26T06:34:54.452Z,14.85
2019-05-26T06:37:26.426Z,13.98
2019-05-26T06:39:58.490Z,13.90
2019-05-26T06:42:30.499Z,12.78
2019-05-26T06:45:02.757Z,12.90
2019-05-26T06:47:34.741Z,12.28
2019-05-26T06:50:07.240Z,11.83
2019-05-26T06:52:39.234Z,11.20
2019-05-26T06:55:11.448Z,11.38
2019-05-26T06:57:43.435Z,10.35
2019-05-26T07:00:15.547Z,10.78
2019-05-26T07:02:47.569Z,9.03
2019-05-26T07:05:19.616Z,9.38
2019-05-26T07:07:51.873Z,10.30
2019-05-26T07:10:23.809Z,9.35
2019-05-26T07:12:55.819Z,8.78
2019-05-26T07:15:27.783Z,8.98
2019-05-26T07:17:59.789Z,8.70
2019-05-26T07:20:31.747Z,8.90
2019-05-26T07:23:04.654Z,7.92
2019-05-26T07:25:37.643Z,8.45
2019-05-26T07:28:09.659Z,8.00
2019-05-26T07:30:41.616Z,8.80
2019-05-26T07:33:15.206Z,8.60
2019-05-26T07:35:49.789Z,8.70
2019-05-26T07:38:21.128Z,8.03
2019-05-26T07:40:53.129Z,8.50
2019-05-26T07:43:27.986Z,8.30
2019-05-26T07:45:59.046Z,7.37
2019-05-26T07:48:35.367Z,8.75
2019-05-26T07:51:05.035Z,8.63
2019-05-26T07:53:37.086Z,9.43
2019-05-26T07:56:09.093Z,8.58
2019-05-26T07:58:41.126Z,9.50
2019-05-26T08:01:13.127Z,9.13
2019-05-26T08:03:45.125Z,9.15
2019-05-26T08:06:17.152Z,9.55
2019-05-26T08:08:49.182Z,9.20
2019-05-26T08:11:21.149Z,8.85
2019-05-26T08:13:53.147Z,9.53
2019-05-26T08:16:25.167Z,9.23
2019-05-26T08:18:57.174Z,9.58
2019-05-26T08:21:29.217Z,8.58
2019-05-26T08:24:01.282Z,9.13
2019-05-26T08:26:33.257Z,9.88
2019-05-26T08:29:05.248Z,10.45
2019-05-26T08:31:37.254Z,10.03
2019-05-26T08:34:09.244Z,9.38
2019-05-26T08:36:41.241Z,9.78
2019-05-26T08:39:13.321Z,9.50
2019-05-26T08:41:45.331Z,9.43
2019-05-26T08:44:17.392Z,9.15
2019-05-26T08:46:49.360Z,9.75
2019-05-26T08:49:21.424Z,9.93
2019-05-26T08:51:53.423Z,9.53
2019-05-26T08:54:25.442Z,9.35
2019-05-26T08:56:57.422Z,8.90
2019-05-26T08:59:29.492Z,8.53
2019-05-26T09:02:01.511Z,9.65
2019-05-26T09:04:33.518Z,8.75
2019-05-26T09:07:05.570Z,9.43
2019-05-26T09:09:37.622Z,8.53
2019-05-26T09:12:09.664Z,8.38
2019-05-26T09:14:41.704Z,8.65
2019-05-26T09:17:13.726Z,8.50
2019-05-26T09:19:45.741Z,8.75
2019-05-26T09:22:17.775Z,8.85
2019-05-26T09:24:49.823Z,8.88
2019-05-26T09:27:21.850Z,8.35
2019-05-26T09:29:53.925Z,8.45
2019-05-26T09:32:26.030Z,7.85
2019-05-26T09:34:58.038Z,8.33
2019-05-26T09:37:30.074Z,7.70
2019-05-26T09:40:02.342Z,8.28
2019-05-26T09:42:34.391Z,8.53
2019-05-26T09:45:06.582Z,7.55
2019-05-26T09:47:38.598Z,6.87
2019-05-26T09:50:11.019Z,7.90
2019-05-26T09:52:43.030Z,7.15
2019-05-26T09:55:15.315Z,6.90
2019-05-26T09:57:47.365Z,7.60
2019-05-26T10:00:19.664Z,7.42
2019-05-26T10:02:51.744Z,7.80
2019-05-26T10:05:23.743Z,7.62
2019-05-26T10:07:55.787Z,6.80
2019-05-26T10:10:27.845Z,6.70
2019-05-26T10:12:59.909Z,7.35
2019-05-26T10:15:32.052Z,6.80
2019-05-26T10:18:04.365Z,6.92
2019-05-26T10:20:36.441Z,6.90
2019-05-26T10:23:08.436Z,5.92
2019-05-26T10:25:40.499Z,6.97
2019-05-26T10:28:12.491Z,6.70
2019-05-26T10:30:44.509Z,6.67
2019-05-26T10:33:16.572Z,6.40
2019-05-26T10:35:48.584Z,5.80
2019-05-26T10:38:20.589Z,5.62
2019-05-26T10:40:52.623Z,6.97
2019-05-26T10:43:24.666Z,6.50
2019-05-26T10:45:56.711Z,6.42
2019-05-26T10:48:28.734Z,5.70
2019-05-26T10:51:00.717Z,5.47
2019-05-26T10:53:32.761Z,6.37
2019-05-26T10:56:04.810Z,6.08
2019-05-26T10:58:36.857Z,6.97
2019-05-26T11:01:08.874Z,6.10
2019-05-26T11:03:40.869Z,5.92
2019-05-26T11:06:12.875Z,5.50
2019-05-26T11:08:44.899Z,6.40
2019-05-26T11:11:16.885Z,5.62
2019-05-26T11:14:01.785Z,6.10
2019-05-26T11:16:22.838Z,6.12
2019-05-26T11:18:54.819Z,5.37
2019-05-26T11:21:26.880Z,5.67
2019-05-26T11:23:58.838Z,5.40
2019-05-26T11:26:30.837Z,5.80
2019-05-26T11:29:02.858Z,5.87
2019-05-26T11:31:34.936Z,6.17
2019-05-26T11:34:06.958Z,5.78
2019-05-26T11:36:38.953Z,5.60
2019-05-26T11:39:11.028Z,5.70
2019-05-26T11:41:43.057Z,5.85
2019-05-26T11:44:17.898Z,5.33
2019-05-26T11:46:49.065Z,5.28
2019-05-26T11:49:21.030Z,5.05
2019-05-26T11:51:53.076Z,5.10
2019-05-26T11:54:25.053Z,5.47
2019-05-26T11:56:57.136Z,4.85
2019-05-26T11:59:29.123Z,5.00
2019-05-26T12:02:01.130Z,4.92
2019-05-26T12:04:33.133Z,5.10
2019-05-26T12:07:05.132Z,4.60
2019-05-26T12:09:37.103Z,4.15
2019-05-26T12:12:09.228Z,4.90
2019-05-26T12:14:41.201Z,4.90
2019-05-26T12:17:13.219Z,4.85
2019-05-26T12:19:45.213Z,4.87
2019-05-26T12:22:17.220Z,4.95
2019-05-26T12:24:49.239Z,5.00
2019-05-26T12:27:21.257Z,4.20
2019-05-26T12:29:53.239Z,4.62
2019-05-26T12:32:25.241Z,4.65
2019-05-26T12:34:57.218Z,4.30
2019-05-26T12:37:29.212Z,4.55
2019-05-26T12:40:01.238Z,4.72
2019-05-26T12:42:33.209Z,3.98
2019-05-26T12:45:05.362Z,4.20
2019-05-26T12:47:37.513Z,4.08
2019-05-26T12:50:10.399Z,4.20
2019-05-26T12:52:42.388Z,4.15
2019-05-26T12:55:16.179Z,4.25
2019-05-26T12:57:48.200Z,3.77
2019-05-26T13:00:20.484Z,4.35
2019-05-26T13:02:52.526Z,3.80
2019-05-26T13:05:24.537Z,3.55
2019-05-26T13:07:56.846Z,3.85
2019-05-26T13:10:28.857Z,3.52
2019-05-26T13:13:00.942Z,3.50
2019-05-26T13:15:32.938Z,3.77
2019-05-26T13:18:04.955Z,4.00
2019-05-26T13:20:37.761Z,4.08
2019-05-26T13:23:09.779Z,4.00
2019-05-26T13:25:41.757Z,3.75
2019-05-26T13:28:13.763Z,3.80
2019-05-26T13:30:45.765Z,3.85
2019-05-26T13:33:17.792Z,4.25
2019-05-26T13:35:49.759Z,3.80
2019-05-26T13:38:21.889Z,4.28
2019-05-26T13:40:53.931Z,5.00
2019-05-26T13:43:25.920Z,4.25
2019-05-26T13:45:57.948Z,4.37
2019-05-26T13:48:29.946Z,4.78
2019-05-26T13:51:01.997Z,4.60
2019-05-26T13:53:33.972Z,4.53
2019-05-26T13:56:06.012Z,4.53
2019-05-26T13:58:38.015Z,4.70
2019-05-26T14:01:10.023Z,4.80
2019-05-26T14:03:42.109Z,4.75
2019-05-26T14:06:14.148Z,4.70
2019-05-26T14:08:46.135Z,4.87
2019-05-26T14:11:18.263Z,5.00
2019-05-26T14:13:50.333Z,5.15
2019-05-26T14:16:23.197Z,4.40
2019-05-26T14:18:55.730Z,4.62
2019-05-26T14:21:27.726Z,4.90
2019-05-26T14:23:59.841Z,4.95
2019-05-26T14:26:31.856Z,5.08
2019-05-26T14:29:03.850Z,4.40
2019-05-26T14:31:35.868Z,4.35
2019-05-26T14:34:07.923Z,5.17
2019-05-26T14:36:39.955Z,4.62
2019-05-26T14:39:11.979Z,4.22
2019-05-26T14:41:44.025Z,4.70
2019-05-26T14:44:16.026Z,4.90
2019-05-26T14:46:48.033Z,4.60
2019-05-26T14:49:20.165Z,4.78
2019-05-26T14:51:52.181Z,4.67
2019-05-26T14:54:24.219Z,4.50
2019-05-26T14:56:56.239Z,4.37
2019-05-26T14:59:28.206Z,4.47
2019-05-26T15:02:00.216Z,5.37
2019-05-26T15:04:32.224Z,4.53
2019-05-26T15:07:04.259Z,4.72
2019-05-26T15:09:36.269Z,4.65
2019-05-26T15:12:08.289Z,5.00
2019-05-26T15:14:40.285Z,4.65
2019-05-26T15:17:12.447Z,5.22
2019-05-26T15:19:44.444Z,4.42
2019-05-26T15:22:16.478Z,4.25
2019-05-26T15:24:48.487Z,4.42
2019-05-26T15:27:20.466Z,4.45
2019-05-26T15:29:52.481Z,4.50
2019-05-26T15:32:24.494Z,4.12
2019-05-26T15:34:56.535Z,4.20
2019-05-26T15:37:28.506Z,4.03
2019-05-26T15:40:00.533Z,3.98
2019-05-26T15:42:32.516Z,4.35
2019-05-26T15:45:04.829Z,4.05
2019-05-26T15:47:36.923Z,3.72
2019-05-26T15:50:08.968Z,3.92
2019-05-26T15:52:41.291Z,4.05
2019-05-26T15:55:13.723Z,3.67
2019-05-26T15:57:45.783Z,3.90
2019-05-26T16:00:18.279Z,3.47
2019-05-26T16:02:50.325Z,3.40
2019-05-26T16:05:22.406Z,3.17
2019-05-26T16:07:54.429Z,3.47
2019-05-26T16:10:26.457Z,3.70
2019-05-26T16:12:58.506Z,3.62
2019-05-26T16:15:30.554Z,3.58
2019-05-26T16:18:02.656Z,3.35
2019-05-26T16:20:34.684Z,3.20
2019-05-26T16:23:08.816Z,2.98
2019-05-26T16:25:40.659Z,4.03
2019-05-26T16:28:12.703Z,3.52
2019-05-26T16:30:44.784Z,3.22
2019-05-26T16:33:16.817Z,3.30
2019-05-26T16:35:48.969Z,3.52
2019-05-26T16:38:21.034Z,3.72
2019-05-26T16:40:53.149Z,3.05
2019-05-26T16:43:25.152Z,2.92
2019-05-26T16:45:57.218Z,2.98
2019-05-26T16:48:29.211Z,2.87
2019-05-26T16:51:01.351Z,3.20
2019-05-26T16:53:33.409Z,3.00
2019-05-26T16:56:05.535Z,3.27
2019-05-26T16:58:37.512Z,3.17
2019-05-26T17:01:09.581Z,3.10
2019-05-26T17:03:41.581Z,3.05
2019-05-26T17:06:13.640Z,2.98
2019-05-26T17:08:45.619Z,2.80
2019-05-26T17:11:17.658Z,3.20
2019-05-26T17:13:49.692Z,2.80
2019-05-26T17:16:21.680Z,2.92
2019-05-26T17:18:53.666Z,2.80
2019-05-26T17:21:25.731Z,2.80
2019-05-26T17:23:57.745Z,2.92
2019-05-26T17:26:29.750Z,3.02
2019-05-26T17:29:01.761Z,2.62
2019-05-26T17:31:33.805Z,3.30
2019-05-26T17:34:05.794Z,2.70
2019-05-26T17:36:37.888Z,2.85
2019-05-26T17:39:09.880Z,2.92
2019-05-26T17:41:42.101Z,2.70
2019-05-26T17:44:14.130Z,2.75
2019-05-26T17:46:46.292Z,3.02
2019-05-26T17:49:18.322Z,3.10
2019-05-26T17:51:50.503Z,3.00
2019-05-26T17:54:22.575Z,2.67
2019-05-26T17:56:54.700Z,2.87
2019-05-26T17:59:26.794Z,2.92
2019-05-26T18:01:58.856Z,3.10
2019-05-26T18:04:30.999Z,3.22
2019-05-26T18:07:03.168Z,2.67
2019-05-26T18:09:43.643Z,2.80
2019-05-26T18:12:09.232Z,3.15
2019-05-26T18:14:41.387Z,3.30
2019-05-26T18:17:13.572Z,3.33
2019-05-26T18:19:45.661Z,2.90
2019-05-26T18:22:17.763Z,2.65
2019-05-26T18:24:56.437Z,3.35
2019-05-26T18:27:23.902Z,3.20
2019-05-26T18:29:56.074Z,2.87
2019-05-26T18:32:28.092Z,3.10
2019-05-26T18:35:00.250Z,3.27
2019-05-26T18:37:32.337Z,3.12
2019-05-26T18:40:05.034Z,3.22
2019-05-26T18:42:37.078Z,3.17
2019-05-26T18:45:09.296Z,3.50
2019-05-26T18:47:41.354Z,3.30
2019-05-26T18:50:13.754Z,3.77
2019-05-26T18:52:45.860Z,3.45
2019-05-26T18:55:17.941Z,3.77
2019-05-26T18:57:50.057Z,3.62
2019-05-26T19:00:22.251Z,3.58
2019-05-26T19:02:54.550Z,3.40
2019-05-26T19:05:33.813Z,2.98
2019-05-26T19:08:01.557Z,3.60
2019-05-26T19:10:33.661Z,3.17
2019-05-26T19:13:05.663Z,3.22
2019-05-26T19:15:37.785Z,3.12
2019-05-26T19:18:19.428Z,3.30
2019-05-26T19:20:43.924Z,3.70
2019-05-26T19:23:15.976Z,3.83
2019-05-26T19:25:48.042Z,3.62
2019-05-26T19:28:20.063Z,3.58
2019-05-26T19:30:52.082Z,3.37
2019-05-26T19:33:24.170Z,4.10
2019-05-26T19:35:56.405Z,3.80
2019-05-26T19:38:28.449Z,4.40
2019-05-26T19:41:00.668Z,3.92
2019-05-26T19:43:32.787Z,3.92
2019-05-26T19:46:04.907Z,3.72
2019-05-26T19:48:37.486Z,4.40
2019-05-26T19:51:09.675Z,4.65
2019-05-26T19:53:41.766Z,4.42
2019-05-26T19:56:13.872Z,3.85
2019-05-26T19:58:45.933Z,4.35
2019-05-26T20:01:18.062Z,4.33
2019-05-26T20:03:50.113Z,3.62
2019-05-26T20:06:22.229Z,4.20
2019-05-26T20:08:54.316Z,4.15
2019-05-26T20:11:26.357Z,4.50
2019-05-26T20:13:58.466Z,3.60
2019-05-26T20:16:31.015Z,3.98
2019-05-26T20:19:03.553Z,3.80
2019-05-26T20:21:35.666Z,4.00
2019-05-26T20:24:07.886Z,4.00
2019-05-26T20:26:40.027Z,4.45
2019-05-26T20:29:12.033Z,4.83
2019-05-26T20:31:44.062Z,4.45
2019-05-26T20:34:16.072Z,4.17
2019-05-26T20:36:48.239Z,4.47
2019-05-26T20:39:20.260Z,4.03
2019-05-26T20:41:52.371Z,4.20
2019-05-26T20:44:24.396Z,4.70
2019-05-26T20:46:56.550Z,4.58
2019-05-26T20:49:44.375Z,4.15
2019-05-26T20:52:02.592Z,4.28
2019-05-26T20:54:34.765Z,4.58
2019-05-26T20:57:06.790Z,4.10
2019-05-26T20:59:38.979Z,5.00
2019-05-26T21:02:11.059Z,4.30
2019-05-26T21:04:43.150Z,4.37
2019-05-26T21:07:15.143Z,4.50
2019-05-26T21:09:47.251Z,4.72
2019-05-26T21:12:19.257Z,5.17
2019-05-26T21:14:51.301Z,4.80
2019-05-26T21:17:23.334Z,4.90
2019-05-26T21:19:55.377Z,5.47
2019-05-26T21:22:27.380Z,5.15
2019-05-26T21:24:59.399Z,4.47
2019-05-26T21:27:31.408Z,4.42
2019-05-26T21:30:04.461Z,4.80
2019-05-26T21:32:36.473Z,4.50
2019-05-26T21:35:08.778Z,4.30
2019-05-26T21:37:40.733Z,4.87
2019-05-26T21:40:13.104Z,4.28
2019-05-26T21:42:45.216Z,4.42
2019-05-26T21:45:17.255Z,4.40
2019-05-26T21:47:49.291Z,4.17
2019-05-26T21:50:21.338Z,4.62
2019-05-26T21:52:53.299Z,4.47
2019-05-26T21:55:25.286Z,4.33
2019-05-26T21:57:57.340Z,4.33
2019-05-26T22:00:34.206Z,4.33
2019-05-26T22:03:06.318Z,4.50
2019-05-26T22:05:38.429Z,4.77
2019-05-26T22:08:10.422Z,4.92
2019-05-26T22:10:42.386Z,5.00
2019-05-26T22:13:14.344Z,5.37
2019-05-26T22:15:46.398Z,5.80
2019-05-26T22:18:18.381Z,5.33
2019-05-26T22:20:50.429Z,5.37
2019-05-26T22:23:22.373Z,5.60
2019-05-26T22:25:54.389Z,4.77
2019-05-26T22:28:26.400Z,4.73
2019-05-26T22:30:58.408Z,4.87
2019-05-26T22:33:30.368Z,4.93
2019-05-26T22:36:02.391Z,4.77
2019-05-26T22:38:34.356Z,5.17
2019-05-26T22:41:06.317Z,4.73
2019-05-26T22:43:38.276Z,5.47
2019-05-26T22:46:10.318Z,5.37
2019-05-26T22:48:42.339Z,4.90
2019-05-26T22:51:14.333Z,4.73
2019-05-26T22:53:46.329Z,4.80
2019-05-26T22:56:18.290Z,5.03
2019-05-26T22:58:50.246Z,4.90
2019-05-26T23:01:22.250Z,4.93
2019-05-26T23:03:54.175Z,5.20
2019-05-26T23:06:26.149Z,5.80
2019-05-26T23:08:58.104Z,5.08
2019-05-26T23:11:30.094Z,5.33
2019-05-26T23:14:02.071Z,4.97
2019-05-26T23:16:34.039Z,4.63
2019-05-26T23:19:18.645Z,4.57
2019-05-26T23:21:39.953Z,5.23
2019-05-26T23:24:11.893Z,4.90
2019-05-26T23:26:43.879Z,4.90
2019-05-26T23:29:15.842Z,5.13
2019-05-26T23:31:47.811Z,5.27
2019-05-26T23:34:19.774Z,5.00
2019-05-26T23:36:51.724Z,5.20
2019-05-26T23:39:23.709Z,5.00
2019-05-26T23:41:55.699Z,5.00
2019-05-26T23:44:27.660Z,5.70
2019-05-26T23:46:59.612Z,5.63
2019-05-26T23:49:31.585Z,5.43
2019-05-26T23:52:03.549Z,5.17
2019-05-26T23:54:35.535Z,5.57
2019-05-26T23:57:07.498Z,5.43
2019-05-26T23:59:39.481Z,5.43
